createdAt,value
2024-04-22T00:01:13.921Z,102807.44
2024-04-22T00:03:40.630Z,102808.63
2024-04-22T00:06:07.289Z,102816.16
2024-04-22T00:08:33.937Z,102805.94
2024-04-22T00:11:05.579Z,102798.31
2024-04-22T00:13:33.707Z,102797.38
2024-04-22T00:16:00.556Z,102805.63
2024-04-22T00:18:27.233Z,102803.44
2024-04-22T00:20:54.153Z,102799.56
2024-04-22T00:23:21.712Z,102796.41
2024-04-22T00:25:48.461Z,102802.00
2024-04-22T00:28:15.289Z,102797.91
2024-04-22T00:30:42.013Z,102798.09
2024-04-22T00:33:10.355Z,102809.75
2024-04-22T00:35:38.920Z,102796.00
2024-04-22T00:38:05.743Z,102798.78
2024-04-22T00:40:32.417Z,102806.91
2024-04-22T00:43:00.359Z,102802.81
2024-04-22T00:45:27.411Z,102801.13
2024-04-22T00:47:54.242Z,102802.94
2024-04-22T00:50:21.013Z,102800.00
2024-04-22T00:52:47.649Z,102804.41
2024-04-22T00:55:14.382Z,102804.63
2024-04-22T00:57:41.626Z,102803.78
2024-04-22T01:00:09.032Z,102806.53
2024-04-22T01:02:35.743Z,102797.66
2024-04-22T01:05:02.652Z,102792.28
2024-04-22T01:07:29.640Z,102788.66
2024-04-22T01:09:56.367Z,102787.81
2024-04-22T01:12:23.032Z,102787.63
2024-04-22T01:14:49.669Z,102796.25
2024-04-22T01:17:16.482Z,102790.00
2024-04-22T01:19:43.189Z,102786.53
2024-04-22T01:22:09.866Z,102794.69
2024-04-22T01:24:37.154Z,102775.66
2024-04-22T01:27:05.240Z,102787.41
2024-04-22T01:29:31.949Z,102773.47
2024-04-22T01:31:58.643Z,102763.00
2024-04-22T01:34:25.306Z,102753.72
2024-04-22T01:36:52.073Z,102759.09
2024-04-22T01:39:18.722Z,102751.09
2024-04-22T01:41:45.386Z,102748.31
2024-04-22T01:44:12.098Z,102741.25
2024-04-22T01:46:38.870Z,102740.06
2024-04-22T01:49:05.699Z,102737.44
2024-04-22T01:51:32.381Z,102739.88
2024-04-22T01:53:59.066Z,102747.69
2024-04-22T01:56:25.808Z,102742.91
2024-04-22T01:58:53.325Z,102742.16
2024-04-22T02:01:20.052Z,102738.81
2024-04-22T02:03:46.779Z,102744.19
2024-04-22T02:06:13.460Z,102736.38
2024-04-22T02:08:40.090Z,102742.72
2024-04-22T02:11:07.127Z,102740.19
2024-04-22T02:13:33.938Z,102744.34
2024-04-22T02:16:00.645Z,102746.44
2024-04-22T02:18:28.602Z,102741.47
2024-04-22T02:20:55.254Z,102730.28
2024-04-22T02:23:21.881Z,102734.22
2024-04-22T02:25:48.616Z,102728.41
2024-04-22T02:28:15.290Z,102726.09
2024-04-22T02:30:41.939Z,102716.91
2024-04-22T02:33:09.840Z,102714.59
2024-04-22T02:35:36.844Z,102728.19
2024-04-22T02:38:04.040Z,102727.56
2024-04-22T02:40:30.904Z,102721.75
2024-04-22T02:42:57.642Z,102723.00
2024-04-22T02:45:26.050Z,102728.53
2024-04-22T02:47:52.730Z,102726.09
2024-04-22T02:50:19.368Z,102727.88
2024-04-22T02:52:46.078Z,102735.03
2024-04-22T02:55:12.777Z,102736.09
2024-04-22T02:57:39.433Z,102734.53
2024-04-22T03:00:06.600Z,102732.72
2024-04-22T03:02:33.388Z,102725.53
2024-04-22T03:05:00.144Z,102726.69
2024-04-22T03:07:28.211Z,102731.03
2024-04-22T03:09:54.987Z,102733.34
2024-04-22T03:12:21.593Z,102729.75
2024-04-22T03:14:48.203Z,102739.28
2024-04-22T03:17:14.986Z,102731.16
2024-04-22T03:19:41.752Z,102731.88
2024-04-22T03:22:08.465Z,102726.28
2024-04-22T03:24:35.152Z,102726.84
2024-04-22T03:27:01.799Z,102714.56
2024-04-22T03:29:28.990Z,102714.47
2024-04-22T03:31:55.790Z,102706.34
2024-04-22T03:34:22.518Z,102711.31
2024-04-22T03:36:49.297Z,102714.91
2024-04-22T03:39:16.026Z,102706.03
2024-04-22T03:41:42.642Z,102706.75
2024-04-22T03:44:10.651Z,102707.63
2024-04-22T03:46:55.931Z,102706.66
2024-04-22T03:49:41.287Z,102708.25
2024-04-22T03:52:08.090Z,102708.03
2024-04-22T03:54:34.782Z,102703.16
2024-04-22T03:57:01.433Z,102708.97
2024-04-22T03:59:28.432Z,102698.94
2024-04-22T04:01:55.107Z,102703.16
2024-04-22T04:04:21.900Z,102713.63
2024-04-22T04:06:48.625Z,102711.47
2024-04-22T04:09:15.401Z,102699.88
2024-04-22T04:11:42.513Z,102695.44
2024-04-22T04:14:09.222Z,102698.06
2024-04-22T04:16:36.216Z,102695.31
2024-04-22T04:19:03.766Z,102698.06
2024-04-22T04:21:30.520Z,102702.38
2024-04-22T04:23:57.154Z,102700.59
2024-04-22T04:26:23.903Z,102701.88
2024-04-22T04:28:51.144Z,102702.72
2024-04-22T04:31:19.388Z,102692.16
2024-04-22T04:33:46.082Z,102693.97
2024-04-22T04:36:12.890Z,102689.00
2024-04-22T04:38:39.561Z,102692.69
2024-04-22T04:41:06.294Z,102687.75
2024-04-22T04:43:33.327Z,102691.56
2024-04-22T04:46:00.154Z,102685.75
2024-04-22T04:48:26.990Z,102688.38
2024-04-22T04:50:53.963Z,102694.81
2024-04-22T04:53:21.334Z,102684.28
2024-04-22T04:55:49.092Z,102693.25
2024-04-22T04:58:16.334Z,102689.78
2024-04-22T05:00:43.413Z,102695.16
2024-04-22T05:03:10.472Z,102702.97
2024-04-22T05:05:37.200Z,102689.78
2024-04-22T05:08:05.203Z,102693.16
2024-04-22T05:10:32.461Z,102688.72
2024-04-22T05:12:59.154Z,102689.78
2024-04-22T05:15:26.478Z,102691.56
2024-04-22T05:17:53.464Z,102686.19
2024-04-22T05:20:20.215Z,102680.78
2024-04-22T05:22:46.965Z,102684.28
2024-04-22T05:25:13.743Z,102682.25
2024-04-22T05:27:40.467Z,102678.56
2024-04-22T05:30:07.644Z,102685.31
2024-04-22T05:32:34.746Z,102688.38
2024-04-22T05:35:20.110Z,102687.00
2024-04-22T05:37:46.817Z,102679.25
2024-04-22T05:40:13.538Z,102680.41
2024-04-22T05:42:40.178Z,102679.50
2024-04-22T05:45:06.854Z,102684.97
2024-04-22T05:47:33.655Z,102691.28
2024-04-22T05:50:01.545Z,102684.16
2024-04-22T05:52:28.701Z,102690.19
2024-04-22T05:54:55.534Z,102680.63
2024-04-22T05:57:22.468Z,102673.72
2024-04-22T05:59:49.245Z,102669.38
2024-04-22T06:02:16.503Z,102672.41
2024-04-22T06:04:43.265Z,102674.47
2024-04-22T06:07:10.001Z,102672.09
2024-04-22T06:09:36.701Z,102663.81
2024-04-22T06:12:14.632Z,102667.53
2024-04-22T06:14:44.818Z,102668.16
2024-04-22T06:17:11.623Z,102671.28
2024-04-22T06:19:38.858Z,102661.75
2024-04-22T06:22:05.660Z,102661.91
2024-04-22T06:24:33.247Z,102681.50
2024-04-22T06:27:00.015Z,102675.38
2024-04-22T06:29:26.811Z,102671.28
2024-04-22T06:31:53.785Z,102669.38
2024-04-22T06:34:20.619Z,102669.69
2024-04-22T06:36:47.356Z,102660.03
2024-04-22T06:39:14.038Z,102662.84
2024-04-22T06:41:40.784Z,102670.06
2024-04-22T06:44:07.407Z,102659.69
2024-04-22T06:46:34.270Z,102650.00
2024-04-22T06:49:00.964Z,102649.13
2024-04-22T06:51:27.584Z,102646.13
2024-04-22T06:53:54.251Z,102653.53
2024-04-22T06:56:20.923Z,102638.97
2024-04-22T06:58:47.635Z,102647.00
2024-04-22T07:01:24.019Z,102647.91
2024-04-22T07:03:59.281Z,102643.19
2024-04-22T07:06:26.148Z,102633.91
2024-04-22T07:08:52.898Z,102638.88
2024-04-22T07:11:19.686Z,102635.41
2024-04-22T07:13:47.093Z,102641.88
2024-04-22T07:16:15.421Z,102633.94
2024-04-22T07:18:42.072Z,102632.41
2024-04-22T07:21:08.732Z,102624.19
2024-04-22T07:23:35.493Z,102636.78
2024-04-22T07:26:05.672Z,102636.22
2024-04-22T07:28:33.029Z,102625.84
2024-04-22T07:31:00.059Z,102622.50
2024-04-22T07:33:30.929Z,102617.28
2024-04-22T07:36:19.131Z,102620.50
2024-04-22T07:38:48.200Z,102618.06
2024-04-22T07:41:15.116Z,102613.97
2024-04-22T07:43:41.838Z,102611.75
2024-04-22T07:46:08.506Z,102608.72
2024-04-22T07:48:35.207Z,102605.91
2024-04-22T07:51:05.269Z,102610.28
2024-04-22T07:53:32.313Z,102611.59
2024-04-22T07:55:59.196Z,102609.53
2024-04-22T07:58:26.126Z,102603.56
2024-04-22T08:00:53.972Z,102613.72
2024-04-22T08:03:21.245Z,102618.50
2024-04-22T08:05:48.228Z,102616.47
2024-04-22T08:08:16.350Z,102620.00
2024-04-22T08:10:43.119Z,102618.84
2024-04-22T08:13:10.728Z,102616.00
2024-04-22T08:15:37.417Z,102614.50
2024-04-22T08:18:04.148Z,102614.75
2024-04-22T08:20:30.892Z,102619.94
2024-04-22T08:23:00.652Z,102620.47
2024-04-22T08:25:27.569Z,102617.09
2024-04-22T08:27:54.360Z,102619.25
2024-04-22T08:30:21.430Z,102625.00
2024-04-22T08:32:48.281Z,102618.53
2024-04-22T08:35:16.161Z,102625.25
2024-04-22T08:37:43.077Z,102603.56
2024-04-22T08:40:10.505Z,102612.41
2024-04-22T08:42:38.643Z,102609.91
2024-04-22T08:45:06.869Z,102605.22
2024-04-22T08:47:33.961Z,102612.75
2024-04-22T08:50:01.143Z,102613.75
2024-04-22T08:52:33.640Z,102618.22
2024-04-22T08:55:07.348Z,102610.41
2024-04-22T08:57:34.310Z,102614.25
2024-04-22T09:00:01.202Z,102609.38
2024-04-22T09:02:27.964Z,102619.59
2024-04-22T09:04:54.817Z,102615.44
2024-04-22T09:07:21.834Z,102616.06
2024-04-22T09:10:07.758Z,102609.56
2024-04-22T09:12:36.088Z,102616.28
2024-04-22T09:15:03.594Z,102602.22
2024-04-22T09:17:30.874Z,102598.84
2024-04-22T09:19:57.837Z,102597.19
2024-04-22T09:22:24.541Z,102602.00
2024-04-22T09:24:51.311Z,102592.59
2024-04-22T09:27:18.165Z,102605.19
2024-04-22T09:29:45.223Z,102601.72
2024-04-22T09:32:14.177Z,102594.78
2024-04-22T09:34:42.342Z,102594.47
2024-04-22T09:37:09.539Z,102595.69
2024-04-22T09:39:38.972Z,102604.19
2024-04-22T09:42:06.152Z,102602.53
2024-04-22T09:44:33.587Z,102602.69
2024-04-22T09:47:00.776Z,102593.16
2024-04-22T09:49:30.354Z,102589.56
2024-04-22T09:51:58.425Z,102600.03
2024-04-22T09:54:25.508Z,102599.84
2024-04-22T09:56:53.087Z,102597.03
2024-04-22T09:59:20.886Z,102585.13
2024-04-22T10:01:47.987Z,102585.28
2024-04-22T10:04:15.295Z,102592.94
2024-04-22T10:06:42.527Z,102594.69
2024-04-22T10:09:09.264Z,102595.91
2024-04-22T10:11:38.193Z,102594.22
2024-04-22T10:14:18.545Z,102587.00
2024-04-22T10:16:58.168Z,102591.47
2024-04-22T10:19:27.816Z,102590.41
2024-04-22T10:22:00.224Z,102582.72
2024-04-22T10:24:30.726Z,102580.72
2024-04-22T10:27:05.376Z,102569.44
2024-04-22T10:29:38.383Z,102573.94
2024-04-22T10:32:05.612Z,102574.72
2024-04-22T10:34:32.364Z,102581.16
2024-04-22T10:36:59.190Z,102576.28
2024-04-22T10:39:25.853Z,102578.72
2024-04-22T10:41:52.587Z,102582.59
2024-04-22T10:44:19.342Z,102567.09
2024-04-22T10:46:46.163Z,102576.41
2024-04-22T10:49:13.004Z,102576.19
2024-04-22T10:51:39.740Z,102574.09
2024-04-22T10:54:06.439Z,102571.91
2024-04-22T10:56:33.086Z,102569.56
2024-04-22T10:59:01.141Z,102576.06
2024-04-22T11:01:28.175Z,102573.75
2024-04-22T11:03:54.913Z,102575.06
2024-04-22T11:06:21.667Z,102574.59
2024-04-22T11:08:48.509Z,102567.66
2024-04-22T11:11:16.797Z,102572.50
2024-04-22T11:13:43.973Z,102562.72
2024-04-22T11:16:11.689Z,102567.09
2024-04-22T11:18:38.998Z,102569.59
2024-04-22T11:21:06.258Z,102569.34
2024-04-22T11:23:32.931Z,102563.28
2024-04-22T11:26:00.625Z,102559.69
2024-04-22T11:28:27.381Z,102555.66
2024-04-22T11:30:55.493Z,102558.69
2024-04-22T11:33:24.886Z,102564.03
2024-04-22T11:35:52.475Z,102550.25
2024-04-22T11:38:19.644Z,102552.09
2024-04-22T11:40:47.259Z,102552.09
2024-04-22T11:43:14.280Z,102543.97
2024-04-22T11:45:41.788Z,102534.78
2024-04-22T11:48:08.739Z,102536.47
2024-04-22T11:50:38.224Z,102541.19
2024-04-22T11:53:14.715Z,102533.06
2024-04-22T11:55:47.916Z,102533.91
2024-04-22T11:58:14.865Z,102532.63
2024-04-22T12:00:41.616Z,102529.25
2024-04-22T12:03:08.576Z,102528.81
2024-04-22T12:05:35.447Z,102519.78
2024-04-22T12:08:02.271Z,102525.31
2024-04-22T12:10:29.140Z,102515.56
2024-04-22T12:12:55.819Z,102505.88
2024-04-22T12:15:22.719Z,102501.09
2024-04-22T12:17:49.901Z,102493.09
2024-04-22T12:20:16.697Z,102490.81
2024-04-22T12:22:43.367Z,102495.69
2024-04-22T12:25:10.018Z,102495.09
2024-04-22T12:27:36.971Z,102487.63
2024-04-22T12:30:03.877Z,102486.41
2024-04-22T12:32:32.741Z,102493.91
2024-04-22T12:35:03.115Z,102489.50
2024-04-22T12:37:32.958Z,102489.34
2024-04-22T12:39:59.592Z,102489.94
2024-04-22T12:42:26.241Z,102480.56
2024-04-22T12:44:52.926Z,102490.63
2024-04-22T12:47:38.265Z,102481.34
2024-04-22T12:50:23.566Z,102485.69
2024-04-22T12:52:50.566Z,102478.34
2024-04-22T12:55:17.718Z,102487.28
2024-04-22T12:57:44.497Z,102478.09
2024-04-22T13:00:14.373Z,102474.03
2024-04-22T13:02:41.411Z,102482.75
2024-04-22T13:05:08.280Z,102475.72
2024-04-22T13:07:35.235Z,102479.72
2024-04-22T13:10:02.155Z,102479.75
2024-04-22T13:12:28.869Z,102466.81
2024-04-22T13:14:55.528Z,102467.78
2024-04-22T13:17:22.349Z,102466.50
2024-04-22T13:19:49.219Z,102455.03
2024-04-22T13:22:16.207Z,102464.06
2024-04-22T13:24:43.029Z,102469.34
2024-04-22T13:27:09.677Z,102464.22
2024-04-22T13:29:36.324Z,102455.81
2024-04-22T13:32:03.245Z,102458.75
2024-04-22T13:34:30.175Z,102449.28
2024-04-22T13:36:56.937Z,102448.53
2024-04-22T13:39:26.095Z,102438.03
2024-04-22T13:41:53.116Z,102444.41
2024-04-22T13:44:19.808Z,102444.09
2024-04-22T13:46:46.593Z,102442.34
2024-04-22T13:49:15.231Z,102431.16
2024-04-22T13:51:42.319Z,102433.34
2024-04-22T13:54:09.690Z,102425.25
2024-04-22T13:56:37.019Z,102431.16
2024-04-22T13:59:04.049Z,102417.25
2024-04-22T14:01:31.246Z,102428.72
2024-04-22T14:03:58.173Z,102409.41
2024-04-22T14:06:24.837Z,102412.66
2024-04-22T14:08:51.680Z,102409.94
2024-04-22T14:11:18.687Z,102414.50
2024-04-22T14:13:45.741Z,102423.41
2024-04-22T14:16:12.414Z,102434.97
2024-04-22T14:18:39.145Z,102441.59
2024-04-22T14:21:05.895Z,102428.97
2024-04-22T14:23:32.561Z,102438.63
2024-04-22T14:26:00.564Z,102440.81
2024-04-22T14:28:28.545Z,102441.22
2024-04-22T14:30:55.871Z,102442.28
2024-04-22T14:33:23.882Z,102448.34
2024-04-22T14:35:51.299Z,102444.59
2024-04-22T14:38:18.042Z,102443.31
2024-04-22T14:40:45.316Z,102446.91
2024-04-22T14:43:12.068Z,102434.47
2024-04-22T14:45:38.845Z,102429.06
2024-04-22T14:48:05.965Z,102423.38
2024-04-22T14:50:32.738Z,102425.28
2024-04-22T14:53:01.331Z,102426.69
2024-04-22T14:55:29.471Z,102421.88
2024-04-22T14:57:56.207Z,102422.78
2024-04-22T15:00:22.989Z,102416.75
2024-04-22T15:02:50.221Z,102429.41
2024-04-22T15:05:17.043Z,102417.84
2024-04-22T15:07:43.778Z,102410.53
2024-04-22T15:10:10.450Z,102409.34
2024-04-22T15:12:37.111Z,102404.63
2024-04-22T15:15:03.983Z,102406.50
2024-04-22T15:17:30.839Z,102404.66
2024-04-22T15:19:57.740Z,102397.19
2024-04-22T15:22:24.418Z,102394.19
2024-04-22T15:24:51.060Z,102390.34
2024-04-22T15:27:17.751Z,102400.34
2024-04-22T15:29:44.471Z,102391.13
2024-04-22T15:32:11.169Z,102400.16
2024-04-22T15:34:39.567Z,102405.44
2024-04-22T15:37:06.619Z,102405.91
2024-04-22T15:39:33.662Z,102405.16
2024-04-22T15:42:00.483Z,102397.88
2024-04-22T15:44:27.200Z,102402.84
2024-04-22T15:46:54.398Z,102399.00
2024-04-22T15:49:21.255Z,102391.06
2024-04-22T15:51:47.955Z,102398.53
2024-04-22T15:54:14.763Z,102396.34
2024-04-22T15:56:42.456Z,102397.09
2024-04-22T15:59:09.382Z,102389.50
2024-04-22T16:01:36.707Z,102393.75
2024-04-22T16:04:03.813Z,102391.47
2024-04-22T16:06:30.658Z,102388.81
2024-04-22T16:08:59.397Z,102392.50
2024-04-22T16:11:26.191Z,102389.50
2024-04-22T16:13:52.981Z,102379.28
2024-04-22T16:16:19.748Z,102378.94
2024-04-22T16:18:46.444Z,102380.59
2024-04-22T16:21:17.286Z,102375.34
2024-04-22T16:23:44.489Z,102374.41
2024-04-22T16:26:11.512Z,102364.41
2024-04-22T16:28:38.370Z,102372.63
2024-04-22T16:31:05.225Z,102368.97
2024-04-22T16:33:31.871Z,102369.09
2024-04-22T16:35:58.589Z,102377.28
2024-04-22T16:38:25.336Z,102369.09
2024-04-22T16:40:52.258Z,102376.22
2024-04-22T16:43:21.111Z,102371.22
2024-04-22T16:45:48.479Z,102371.53
2024-04-22T16:48:15.300Z,102374.56
2024-04-22T16:50:42.734Z,102368.84
2024-04-22T16:53:09.722Z,102379.25
2024-04-22T16:55:36.475Z,102364.44
2024-04-22T16:58:03.241Z,102375.59
2024-04-22T17:00:30.733Z,102365.31
2024-04-22T17:02:57.390Z,102374.75
2024-04-22T17:05:24.090Z,102378.81
2024-04-22T17:07:50.897Z,102379.50
2024-04-22T17:10:19.056Z,102373.63
2024-04-22T17:12:45.916Z,102371.59
2024-04-22T17:15:12.714Z,102371.69
2024-04-22T17:17:39.616Z,102366.97
2024-04-22T17:20:07.338Z,102362.88
2024-04-22T17:22:34.046Z,102372.84
2024-04-22T17:25:00.713Z,102359.88
2024-04-22T17:27:28.376Z,102365.38
2024-04-22T17:29:55.072Z,102365.66
2024-04-22T17:32:21.851Z,102368.25
2024-04-22T17:34:48.581Z,102365.47
2024-04-22T17:37:19.444Z,102364.50
2024-04-22T17:39:49.302Z,102378.97
2024-04-22T17:42:15.993Z,102379.97
2024-04-22T17:44:42.757Z,102390.72
2024-04-22T17:47:09.456Z,102383.88
2024-04-22T17:49:36.207Z,102386.63
2024-04-22T17:52:02.897Z,102392.28
2024-04-22T17:54:29.551Z,102389.03
2024-04-22T17:57:02.355Z,102394.31
2024-04-22T17:59:33.586Z,102406.84
2024-04-22T18:02:00.223Z,102397.78
2024-04-22T18:04:27.408Z,102409.31
2024-04-22T18:06:54.115Z,102416.78
2024-04-22T18:09:20.802Z,102413.50
2024-04-22T18:11:47.612Z,102404.72
2024-04-22T18:14:14.498Z,102410.13
2024-04-22T18:16:42.360Z,102409.75
2024-04-22T18:19:09.138Z,102409.66
2024-04-22T18:21:35.829Z,102410.31
2024-04-22T18:24:05.910Z,102417.22
2024-04-22T18:26:34.444Z,102414.25
2024-04-22T18:29:01.649Z,102418.88
2024-04-22T18:31:28.402Z,102420.06
2024-04-22T18:33:55.077Z,102419.75
2024-04-22T18:36:21.713Z,102419.63
2024-04-22T18:38:49.175Z,102424.94
2024-04-22T18:41:16.018Z,102420.78
2024-04-22T18:43:42.786Z,102417.31
2024-04-22T18:46:09.707Z,102432.72
2024-04-22T18:48:36.525Z,102425.06
2024-04-22T18:51:07.108Z,102423.25
2024-04-22T18:53:34.786Z,102434.47
2024-04-22T18:56:01.528Z,102438.38
2024-04-22T18:58:29.480Z,102435.88
2024-04-22T19:00:58.828Z,102436.72
2024-04-22T19:03:25.569Z,102447.75
2024-04-22T19:05:52.234Z,102438.81
2024-04-22T19:08:18.922Z,102444.25
2024-04-22T19:10:45.764Z,102444.41
2024-04-22T19:13:12.506Z,102460.34
2024-04-22T19:15:39.185Z,102453.19
2024-04-22T19:18:06.262Z,102459.59
2024-04-22T19:20:33.031Z,102454.13
2024-04-22T19:22:59.710Z,102452.88
2024-04-22T19:25:26.485Z,102457.72
2024-04-22T19:27:53.591Z,102451.44
2024-04-22T19:30:20.233Z,102456.88
2024-04-22T19:32:47.030Z,102451.97
2024-04-22T19:35:15.653Z,102473.28
2024-04-22T19:37:42.415Z,102472.88
2024-04-22T19:40:09.164Z,102469.38
2024-04-22T19:42:35.799Z,102468.09
2024-04-22T19:45:04.020Z,102481.13
2024-04-22T19:47:31.297Z,102478.19
2024-04-22T19:49:58.229Z,102471.78
2024-04-22T19:52:25.133Z,102476.91
2024-04-22T19:54:54.805Z,102473.97
2024-04-22T19:57:23.128Z,102473.22
2024-04-22T19:59:51.024Z,102480.22
2024-04-22T20:02:17.788Z,102479.88
2024-04-22T20:04:45.111Z,102478.22
2024-04-22T20:07:11.901Z,102483.66
2024-04-22T20:09:38.734Z,102482.75
2024-04-22T20:12:05.964Z,102488.28
2024-04-22T20:14:32.622Z,102500.13
2024-04-22T20:17:10.724Z,102498.06
2024-04-22T20:19:38.568Z,102498.47
2024-04-22T20:22:08.530Z,102505.69
2024-04-22T20:24:35.229Z,102491.41
2024-04-22T20:27:02.377Z,102497.44
2024-04-22T20:29:29.143Z,102491.19
2024-04-22T20:31:56.126Z,102505.09
2024-04-22T20:34:23.210Z,102502.78
2024-04-22T20:36:52.928Z,102487.88
2024-04-22T20:39:22.867Z,102493.56
2024-04-22T20:41:49.603Z,102481.06
2024-04-22T20:44:16.387Z,102502.63
2024-04-22T20:46:43.152Z,102489.38
2024-04-22T20:49:09.992Z,102491.72
2024-04-22T20:51:37.415Z,102490.25
2024-04-22T20:54:04.218Z,102484.38
2024-04-22T20:56:30.829Z,102481.88
2024-04-22T20:58:57.816Z,102490.19
2024-04-22T21:01:24.530Z,102490.66
2024-04-22T21:03:51.275Z,102490.06
2024-04-22T21:06:18.211Z,102486.00
2024-04-22T21:08:44.864Z,102490.09
2024-04-22T21:11:11.668Z,102492.75
2024-04-22T21:13:43.871Z,102486.75
2024-04-22T21:16:10.859Z,102480.47
2024-04-22T21:18:37.570Z,102490.47
2024-04-22T21:21:04.754Z,102476.66
2024-04-22T21:23:32.318Z,102478.81
2024-04-22T21:25:58.977Z,102485.34
2024-04-22T21:28:25.787Z,102481.13
2024-04-22T21:30:52.583Z,102478.59
2024-04-22T21:33:35.227Z,102477.28
2024-04-22T21:36:06.427Z,102489.28
2024-04-22T21:38:33.129Z,102487.63
2024-04-22T21:40:59.788Z,102479.78
2024-04-22T21:43:27.358Z,102496.38
2024-04-22T21:45:54.136Z,102477.28
2024-04-22T21:48:24.759Z,102474.50
2024-04-22T21:50:52.392Z,102478.94
2024-04-22T21:53:20.038Z,102479.22
2024-04-22T21:55:49.279Z,102475.22
2024-04-22T21:58:53.859Z,102486.78
2024-04-22T22:01:58.540Z,102475.00
2024-04-22T22:05:03.141Z,102481.34
2024-04-22T22:07:29.939Z,102483.16
2024-04-22T22:09:56.625Z,102478.25
2024-04-22T22:12:24.545Z,102481.97
2024-04-22T22:14:51.848Z,102476.06
2024-04-22T22:17:18.878Z,102479.91
2024-04-22T22:19:47.330Z,102476.56
2024-04-22T22:22:14.034Z,102478.25
2024-04-22T22:24:44.867Z,102481.47
2024-04-22T22:27:13.202Z,102474.84
2024-04-22T22:29:40.387Z,102469.09
2024-04-22T22:32:07.527Z,102485.16
2024-04-22T22:34:34.449Z,102481.47
2024-04-22T22:37:03.396Z,102475.56
2024-04-22T22:39:30.411Z,102485.16
2024-04-22T22:41:57.072Z,102472.09
2024-04-22T22:44:24.302Z,102467.66
2024-04-22T22:46:51.351Z,102462.59
2024-04-22T22:49:18.056Z,102463.91
2024-04-22T22:51:44.743Z,102469.19
2024-04-22T22:54:11.442Z,102463.31
2024-04-22T22:56:38.091Z,102478.56
2024-04-22T22:59:04.748Z,102465.69
2024-04-22T23:01:31.467Z,102470.25
2024-04-22T23:03:58.204Z,102470.38
2024-04-22T23:06:25.317Z,102457.16
2024-04-22T23:08:52.148Z,102460.88
2024-04-22T23:11:18.915Z,102470.84
2024-04-22T23:13:45.704Z,102460.50
2024-04-22T23:16:13.427Z,102458.00
2024-04-22T23:18:40.143Z,102462.91
2024-04-22T23:21:06.840Z,102459.66
2024-04-22T23:23:33.511Z,102454.81
2024-04-22T23:26:00.255Z,102459.47
2024-04-22T23:28:27.108Z,102458.56
2024-04-22T23:30:53.796Z,102465.97
2024-04-22T23:33:20.534Z,102454.78
2024-04-22T23:35:47.317Z,102450.69
2024-04-22T23:38:14.030Z,102451.88
2024-04-22T23:40:40.649Z,102452.84
2024-04-22T23:43:07.296Z,102452.22
2024-04-22T23:45:34.097Z,102450.66
2024-04-22T23:48:00.932Z,102445.59
2024-04-22T23:50:27.720Z,102440.56
2024-04-22T23:52:54.470Z,102441.63
2024-04-22T23:55:21.198Z,102440.88
2024-04-22T23:57:47.837Z,102436.78
